CES8305 ZUUU-ZSPD
Flight info
| Callsign | CES8305 |
|---|---|
| Flight time | 1h 51m |
| Altitude | 39100 |
| Route | K0893S1190 UBRAB9W UBRAB B213 WHA R343 EKIMU DCT |
| Aircraft | B77W/H-SDE1E2E3FGHIJ2J3J4J5M1RWXY/LB1D1 |
Departure
| Time | 2026-05-07 20:50 |
|---|---|
| Airport | Chengdu Shuangliu International Airport (ZUUU) |
Arrival
| Time | 2026-05-07 22:41 |
|---|---|
| Airport | Shanghai Pudong International Airport (ZSPD) |
| Time | Latitude | Longitude | Altitude | Speed | Heading |
|---|---|---|---|---|---|
| 2026-05-07 20:47 | 30.56578 | 103.94249 | 1642 ft | 0 kts | 290° |
| 2026-05-07 20:48 | 30.56582 | 103.94237 | 1642 ft | 3 kts | 290° |
| 2026-05-07 20:48 | 30.56590 | 103.94213 | 1642 ft | 3 kts | 290° |
| 2026-05-07 20:48 | 30.56598 | 103.94189 | 1642 ft | 3 kts | 290° |
| 2026-05-07 20:48 | 30.56614 | 103.94155 | 1642 ft | 6 kts | 316° |
| 2026-05-07 20:49 | 30.56648 | 103.94144 | 1642 ft | 5 kts | 11° |
| 2026-05-07 20:49 | 30.56691 | 103.94161 | 1642 ft | 14 kts | 20° |
| 2026-05-07 20:49 | 30.57046 | 103.94324 | 1642 ft | 103 kts | 22° |
| 2026-05-07 20:49 | 30.57992 | 103.94752 | 1813 ft | 175 kts | 21° |
| 2026-05-07 20:50 | 30.59095 | 103.95281 | 3062 ft | 174 kts | 22° |
| 2026-05-07 20:50 | 30.60167 | 103.95781 | 3898 ft | 175 kts | 22° |
| 2026-05-07 20:50 | 30.61353 | 103.96331 | 4496 ft | 191 kts | 22° |
| 2026-05-07 20:50 | 30.62616 | 103.96918 | 5133 ft | 206 kts | 23° |
| 2026-05-07 20:51 | 30.64014 | 103.97571 | 5911 ft | 231 kts | 23° |
| 2026-05-07 20:51 | 30.65491 | 103.98259 | 7311 ft | 242 kts | 23° |
| 2026-05-07 20:51 | 30.67099 | 103.99009 | 8603 ft | 261 kts | 23° |
| 2026-05-07 20:51 | 30.68774 | 103.99933 | 9885 ft | 277 kts | 37° |
| 2026-05-07 20:52 | 30.70092 | 104.01562 | 11094 ft | 294 kts | 59° |
| 2026-05-07 20:52 | 30.71097 | 104.03698 | 12251 ft | 316 kts | 63° |
| 2026-05-07 20:52 | 30.72115 | 104.06049 | 13442 ft | 336 kts | 63° |
| 2026-05-07 20:52 | 30.73174 | 104.08515 | 14532 ft | 357 kts | 63° |
| 2026-05-07 20:53 | 30.74317 | 104.11181 | 15578 ft | 378 kts | 63° |
| 2026-05-07 20:53 | 30.75512 | 104.13973 | 16544 ft | 399 kts | 62° |
| 2026-05-07 20:53 | 30.76936 | 104.16775 | 17487 ft | 416 kts | 51° |
| 2026-05-07 20:53 | 30.78876 | 104.19293 | 18418 ft | 430 kts | 38° |
| 2026-05-07 20:54 | 30.81347 | 104.21389 | 19337 ft | 443 kts | 25° |
| 2026-05-07 20:54 | 30.84152 | 104.22807 | 20312 ft | 449 kts | 12° |
| 2026-05-07 20:54 | 30.87223 | 104.23482 | 21402 ft | 449 kts | 358° |
| 2026-05-07 20:54 | 30.90320 | 104.23601 | 22514 ft | 452 kts | 354° |
| 2026-05-07 20:55 | 30.93476 | 104.23631 | 23785 ft | 456 kts | 354° |
| 2026-05-07 20:55 | 30.96678 | 104.23653 | 24776 ft | 466 kts | 354° |
| 2026-05-07 20:55 | 30.99977 | 104.23990 | 25550 ft | 487 kts | 4° |
| 2026-05-07 20:55 | 31.03297 | 104.25002 | 26366 ft | 505 kts | 14° |
| 2026-05-07 20:56 | 31.06532 | 104.26742 | 27238 ft | 521 kts | 26° |
| 2026-05-07 20:56 | 31.09524 | 104.29204 | 28078 ft | 534 kts | 37° |
| 2026-05-07 20:56 | 31.12127 | 104.32323 | 28791 ft | 547 kts | 49° |
| 2026-05-07 20:56 | 31.14222 | 104.36047 | 29439 ft | 558 kts | 62° |
| 2026-05-07 20:57 | 31.15643 | 104.40256 | 30370 ft | 558 kts | 75° |
| 2026-05-07 20:57 | 31.16301 | 104.44680 | 31458 ft | 552 kts | 88° |
| 2026-05-07 20:57 | 31.16219 | 104.49044 | 32431 ft | 545 kts | 99° |
| 2026-05-07 20:57 | 31.15441 | 104.53341 | 33209 ft | 541 kts | 110° |
| 2026-05-07 20:58 | 31.14237 | 104.57522 | 33957 ft | 540 kts | 112° |
| 2026-05-07 20:58 | 31.13007 | 104.61584 | 34650 ft | 540 kts | 113° |
| 2026-05-07 20:58 | 31.11743 | 104.65738 | 35343 ft | 540 kts | 114° |
| 2026-05-07 20:58 | 31.10498 | 104.69827 | 35946 ft | 540 kts | 114° |
| 2026-05-07 20:59 | 31.09228 | 104.73989 | 36507 ft | 542 kts | 114° |
| 2026-05-07 20:59 | 31.07963 | 104.78127 | 36925 ft | 545 kts | 114° |
| 2026-05-07 20:59 | 31.06685 | 104.82302 | 37239 ft | 550 kts | 114° |
| 2026-05-07 21:00 | 31.04125 | 104.90660 | 37258 ft | 545 kts | 114° |
| 2026-05-07 21:00 | 31.01390 | 104.98997 | 37266 ft | 557 kts | 119° |
| 2026-05-07 21:01 | 30.98102 | 105.07328 | 37247 ft | 572 kts | 119° |
| 2026-05-07 21:01 | 30.94807 | 105.15620 | 37256 ft | 580 kts | 119° |
| 2026-05-07 21:02 | 30.92272 | 105.21996 | 37259 ft | 580 kts | 120° |
| 2026-05-07 21:02 | 30.88882 | 105.30513 | 37249 ft | 581 kts | 119° |
| 2026-05-07 21:03 | 30.86466 | 105.39521 | 37256 ft | 589 kts | 102° |
| 2026-05-07 21:03 | 30.86095 | 105.49026 | 37260 ft | 596 kts | 84° |
| 2026-05-07 21:04 | 30.87666 | 105.58440 | 37267 ft | 595 kts | 74° |
| 2026-05-07 21:04 | 30.89698 | 105.67725 | 37253 ft | 594 kts | 75° |
| 2026-05-07 21:05 | 30.91705 | 105.77019 | 37257 ft | 594 kts | 75° |
| 2026-05-07 21:05 | 30.93694 | 105.86346 | 37254 ft | 594 kts | 75° |
| 2026-05-07 21:06 | 30.95444 | 105.95753 | 37259 ft | 595 kts | 83° |
| 2026-05-07 21:06 | 30.95371 | 106.05305 | 37248 ft | 593 kts | 101° |
| 2026-05-07 21:07 | 30.93504 | 106.14612 | 37263 ft | 590 kts | 108° |
| 2026-05-07 21:07 | 30.91336 | 106.23812 | 37261 ft | 588 kts | 109° |
| 2026-05-07 21:08 | 30.89158 | 106.32980 | 37259 ft | 591 kts | 109° |
| 2026-05-07 21:08 | 30.86743 | 106.42014 | 37259 ft | 584 kts | 117° |
| 2026-05-07 21:09 | 30.83326 | 106.50560 | 37263 ft | 584 kts | 120° |
| 2026-05-07 21:09 | 30.79834 | 106.59055 | 37264 ft | 583 kts | 120° |
| 2026-05-07 21:10 | 30.76339 | 106.67537 | 37247 ft | 584 kts | 120° |
| 2026-05-07 21:10 | 30.72845 | 106.76004 | 37246 ft | 583 kts | 121° |
| 2026-05-07 21:11 | 30.69323 | 106.84518 | 37245 ft | 584 kts | 120° |
| 2026-05-07 21:11 | 30.64060 | 106.97206 | 37250 ft | 583 kts | 120° |
| 2026-05-07 21:12 | 30.60547 | 107.05652 | 37251 ft | 584 kts | 120° |
| 2026-05-07 21:12 | 30.57006 | 107.14145 | 37252 ft | 586 kts | 120° |
| 2026-05-07 21:13 | 30.53441 | 107.22678 | 37260 ft | 587 kts | 120° |
| 2026-05-07 21:13 | 30.49903 | 107.31128 | 37351 ft | 585 kts | 120° |
| 2026-05-07 21:14 | 30.48126 | 107.35364 | 37567 ft | 586 kts | 120° |
| 2026-05-07 21:14 | 30.46332 | 107.39635 | 37793 ft | 587 kts | 120° |
| 2026-05-07 21:14 | 30.44558 | 107.43855 | 38018 ft | 587 kts | 120° |
| 2026-05-07 21:14 | 30.42790 | 107.48055 | 38244 ft | 587 kts | 120° |
| 2026-05-07 21:15 | 30.40983 | 107.52344 | 38502 ft | 587 kts | 120° |
| 2026-05-07 21:15 | 30.39205 | 107.56558 | 38768 ft | 586 kts | 120° |
| 2026-05-07 21:15 | 30.37429 | 107.60765 | 39033 ft | 585 kts | 120° |
| 2026-05-07 21:15 | 30.35633 | 107.65012 | 39272 ft | 585 kts | 121° |
| 2026-05-07 21:16 | 30.32043 | 107.73487 | 39256 ft | 587 kts | 120° |
| 2026-05-07 21:16 | 30.28454 | 107.81941 | 39260 ft | 586 kts | 120° |
| 2026-05-07 21:17 | 30.24847 | 107.90421 | 39263 ft | 587 kts | 120° |
| 2026-05-07 21:17 | 30.21243 | 107.98873 | 39254 ft | 586 kts | 120° |
| 2026-05-07 21:18 | 30.17647 | 108.07288 | 39269 ft | 586 kts | 120° |
| 2026-05-07 21:18 | 30.14050 | 108.15687 | 39285 ft | 586 kts | 120° |
| 2026-05-07 21:19 | 30.10516 | 108.24189 | 39286 ft | 589 kts | 115° |
| 2026-05-07 21:19 | 30.08465 | 108.33373 | 39290 ft | 595 kts | 97° |
| 2026-05-07 21:20 | 30.08505 | 108.42853 | 39288 ft | 595 kts | 80° |
| 2026-05-07 21:20 | 30.10442 | 108.52055 | 39307 ft | 591 kts | 70° |
| 2026-05-07 21:21 | 30.12872 | 108.61073 | 39313 ft | 589 kts | 67° |
| 2026-05-07 21:21 | 30.15577 | 108.70044 | 39290 ft | 590 kts | 68° |
| 2026-05-07 21:22 | 30.18235 | 108.78974 | 39290 ft | 588 kts | 68° |
| 2026-05-07 21:22 | 30.20865 | 108.87917 | 39303 ft | 589 kts | 68° |
| 2026-05-07 21:23 | 30.23400 | 108.96897 | 39311 ft | 591 kts | 71° |
| 2026-05-07 21:23 | 30.25640 | 109.06055 | 39310 ft | 591 kts | 71° |
| 2026-05-07 21:24 | 30.27862 | 109.15188 | 39310 ft | 591 kts | 71° |
| 2026-05-07 21:24 | 30.30081 | 109.24302 | 39318 ft | 592 kts | 71° |
| 2026-05-07 21:25 | 30.32294 | 109.33403 | 39320 ft | 592 kts | 71° |
| 2026-05-07 21:25 | 30.34526 | 109.42575 | 39318 ft | 595 kts | 71° |
| 2026-05-07 21:26 | 30.36764 | 109.51809 | 39327 ft | 597 kts | 71° |
| 2026-05-07 21:26 | 30.38926 | 109.61072 | 39326 ft | 598 kts | 75° |
| 2026-05-07 21:27 | 30.40338 | 109.70280 | 39313 ft | 600 kts | 78° |
| 2026-05-07 21:27 | 30.41743 | 109.79881 | 39321 ft | 600 kts | 78° |
| 2026-05-07 21:28 | 30.43129 | 109.89382 | 39324 ft | 599 kts | 78° |
| 2026-05-07 21:28 | 30.44502 | 109.98838 | 39322 ft | 599 kts | 78° |
| 2026-05-07 21:29 | 30.45885 | 110.08396 | 39325 ft | 599 kts | 78° |
| 2026-05-07 21:29 | 30.47252 | 110.17895 | 39327 ft | 599 kts | 78° |
| 2026-05-07 21:30 | 30.48615 | 110.27418 | 39334 ft | 598 kts | 78° |
| 2026-05-07 21:30 | 30.49972 | 110.36942 | 39338 ft | 599 kts | 78° |
| 2026-05-07 21:31 | 30.51321 | 110.46465 | 39343 ft | 599 kts | 78° |
| 2026-05-07 21:31 | 30.52666 | 110.56004 | 39347 ft | 599 kts | 78° |
| 2026-05-07 21:32 | 30.53996 | 110.65495 | 39351 ft | 599 kts | 78° |
| 2026-05-07 21:32 | 30.55324 | 110.75018 | 39329 ft | 600 kts | 78° |
| 2026-05-07 21:33 | 30.56642 | 110.84526 | 39339 ft | 599 kts | 78° |
| 2026-05-07 21:33 | 30.57951 | 110.94083 | 39320 ft | 599 kts | 78° |
| 2026-05-07 21:34 | 30.59261 | 111.03612 | 39318 ft | 600 kts | 78° |
| 2026-05-07 21:34 | 30.60565 | 111.13154 | 39302 ft | 598 kts | 78° |
| 2026-05-07 21:35 | 30.61859 | 111.22694 | 39289 ft | 599 kts | 78° |
| 2026-05-07 21:35 | 30.63138 | 111.32171 | 39277 ft | 598 kts | 78° |
| 2026-05-07 21:36 | 30.64414 | 111.41698 | 39287 ft | 598 kts | 78° |
| 2026-05-07 21:36 | 30.65425 | 111.51331 | 39286 ft | 600 kts | 84° |
| 2026-05-07 21:37 | 30.65927 | 111.60959 | 39279 ft | 599 kts | 84° |
| 2026-05-07 21:37 | 30.66412 | 111.70580 | 39255 ft | 600 kts | 85° |
| 2026-05-07 21:38 | 30.66894 | 111.80109 | 39255 ft | 600 kts | 85° |
| 2026-05-07 21:38 | 30.67373 | 111.89699 | 39254 ft | 600 kts | 85° |
| 2026-05-07 21:39 | 30.67872 | 111.99367 | 39252 ft | 599 kts | 84° |
| 2026-05-07 21:39 | 30.68539 | 112.08977 | 39253 ft | 599 kts | 83° |
| 2026-05-07 21:40 | 30.69205 | 112.18592 | 39255 ft | 600 kts | 83° |
| 2026-05-07 21:40 | 30.69863 | 112.28258 | 39258 ft | 600 kts | 83° |
| 2026-05-07 21:41 | 30.70506 | 112.37859 | 39252 ft | 600 kts | 83° |
| 2026-05-07 21:41 | 30.71143 | 112.47498 | 39259 ft | 601 kts | 83° |
| 2026-05-07 21:42 | 30.71773 | 112.57170 | 39261 ft | 600 kts | 83° |
| 2026-05-07 21:42 | 30.72390 | 112.66756 | 39249 ft | 599 kts | 84° |
| 2026-05-07 21:43 | 30.73004 | 112.76410 | 39242 ft | 600 kts | 84° |
| 2026-05-07 21:43 | 30.73611 | 112.86079 | 39241 ft | 600 kts | 83° |
| 2026-05-07 21:44 | 30.74207 | 112.95695 | 39244 ft | 600 kts | 83° |
| 2026-05-07 21:44 | 30.74799 | 113.05349 | 39232 ft | 600 kts | 83° |
| 2026-05-07 21:45 | 30.75383 | 113.15001 | 39232 ft | 600 kts | 84° |
| 2026-05-07 21:45 | 30.75679 | 113.24693 | 39236 ft | 602 kts | 86° |
| 2026-05-07 21:46 | 30.75901 | 113.34354 | 39237 ft | 602 kts | 86° |
| 2026-05-07 21:46 | 30.76127 | 113.44048 | 39240 ft | 602 kts | 86° |
| 2026-05-07 21:47 | 30.76351 | 113.53719 | 39239 ft | 601 kts | 86° |
| 2026-05-07 21:47 | 30.76574 | 113.63440 | 39242 ft | 602 kts | 86° |
| 2026-05-07 21:48 | 30.76791 | 113.73135 | 39223 ft | 601 kts | 86° |
| 2026-05-07 21:48 | 30.76968 | 113.81202 | 39228 ft | 602 kts | 87° |
| 2026-05-07 21:49 | 30.77208 | 113.92530 | 39230 ft | 602 kts | 86° |
| 2026-05-07 21:49 | 30.77406 | 114.02204 | 39231 ft | 601 kts | 86° |
| 2026-05-07 21:50 | 30.77782 | 114.11868 | 39233 ft | 601 kts | 84° |
| 2026-05-07 21:50 | 30.78838 | 114.21485 | 39230 ft | 592 kts | 71° |
| 2026-05-07 21:51 | 30.81503 | 114.30382 | 39233 ft | 588 kts | 64° |
| 2026-05-07 21:51 | 30.84386 | 114.39301 | 39234 ft | 587 kts | 64° |
| 2026-05-07 21:52 | 30.87248 | 114.48191 | 39233 ft | 586 kts | 63° |
| 2026-05-07 21:52 | 30.90154 | 114.57140 | 39236 ft | 586 kts | 63° |
| 2026-05-07 21:53 | 30.93031 | 114.66013 | 39226 ft | 586 kts | 64° |
| 2026-05-07 21:53 | 30.95895 | 114.74872 | 39215 ft | 587 kts | 64° |
| 2026-05-07 21:54 | 30.98745 | 114.83717 | 39217 ft | 586 kts | 64° |
| 2026-05-07 21:54 | 31.01612 | 114.92635 | 39217 ft | 587 kts | 64° |
| 2026-05-07 21:55 | 31.04464 | 115.01535 | 39216 ft | 586 kts | 64° |
| 2026-05-07 21:55 | 31.07327 | 115.10499 | 39222 ft | 586 kts | 64° |
| 2026-05-07 21:56 | 31.10148 | 115.19356 | 39235 ft | 585 kts | 64° |
| 2026-05-07 21:56 | 31.12971 | 115.28274 | 39252 ft | 587 kts | 64° |
| 2026-05-07 21:57 | 31.15842 | 115.37173 | 39265 ft | 587 kts | 64° |
| 2026-05-07 21:57 | 31.18712 | 115.46030 | 39262 ft | 584 kts | 63° |
| 2026-05-07 21:58 | 31.21563 | 115.54861 | 39275 ft | 585 kts | 64° |
| 2026-05-07 21:58 | 31.24425 | 115.63749 | 39278 ft | 584 kts | 63° |
| 2026-05-07 21:59 | 31.27269 | 115.72607 | 39264 ft | 585 kts | 64° |
| 2026-05-07 21:59 | 31.30122 | 115.81522 | 39263 ft | 587 kts | 64° |
| 2026-05-07 22:00 | 31.32974 | 115.90452 | 39262 ft | 587 kts | 63° |
| 2026-05-07 22:00 | 31.35869 | 115.99322 | 39260 ft | 586 kts | 63° |
| 2026-05-07 22:01 | 31.38759 | 116.08187 | 39263 ft | 586 kts | 63° |
| 2026-05-07 22:01 | 31.41665 | 116.17134 | 39263 ft | 587 kts | 63° |
| 2026-05-07 22:02 | 31.44539 | 116.26008 | 39269 ft | 585 kts | 63° |
| 2026-05-07 22:02 | 31.47401 | 116.34874 | 39269 ft | 585 kts | 64° |
| 2026-05-07 22:03 | 31.50264 | 116.43766 | 39277 ft | 586 kts | 64° |
| 2026-05-07 22:03 | 31.53136 | 116.52712 | 39284 ft | 585 kts | 64° |
| 2026-05-07 22:04 | 31.55972 | 116.61572 | 39281 ft | 587 kts | 64° |
| 2026-05-07 22:04 | 31.58834 | 116.70538 | 39264 ft | 585 kts | 64° |
| 2026-05-07 22:05 | 31.61679 | 116.79479 | 39270 ft | 587 kts | 64° |
| 2026-05-07 22:05 | 31.64516 | 116.88416 | 39270 ft | 586 kts | 64° |
| 2026-05-07 22:06 | 31.67348 | 116.97363 | 39278 ft | 586 kts | 64° |
| 2026-05-07 22:06 | 31.70159 | 117.06332 | 39282 ft | 586 kts | 65° |
| 2026-05-07 22:07 | 31.72936 | 117.15325 | 39278 ft | 586 kts | 65° |
| 2026-05-07 22:07 | 31.75656 | 117.24286 | 39268 ft | 587 kts | 69° |
| 2026-05-07 22:08 | 31.77043 | 117.33785 | 39288 ft | 596 kts | 85° |
| 2026-05-07 22:08 | 31.76645 | 117.43482 | 39277 ft | 599 kts | 93° |
| 2026-05-07 22:09 | 31.75950 | 117.53236 | 39280 ft | 598 kts | 93° |
| 2026-05-07 22:09 | 31.75256 | 117.62952 | 39286 ft | 598 kts | 93° |
| 2026-05-07 22:10 | 31.74560 | 117.72673 | 39264 ft | 598 kts | 94° |
| 2026-05-07 22:10 | 31.73861 | 117.82386 | 39267 ft | 599 kts | 94° |
| 2026-05-07 22:11 | 31.73154 | 117.92126 | 39279 ft | 599 kts | 94° |
| 2026-05-07 22:11 | 31.72442 | 118.01851 | 39275 ft | 600 kts | 94° |
| 2026-05-07 22:12 | 31.71721 | 118.11609 | 39279 ft | 599 kts | 93° |
| 2026-05-07 22:12 | 31.71047 | 118.21291 | 39283 ft | 599 kts | 93° |
| 2026-05-07 22:13 | 31.70370 | 118.31009 | 39280 ft | 599 kts | 93° |
| 2026-05-07 22:13 | 31.69682 | 118.40750 | 39293 ft | 598 kts | 93° |
| 2026-05-07 22:14 | 31.68990 | 118.50444 | 39299 ft | 599 kts | 93° |
| 2026-05-07 22:14 | 31.68290 | 118.60139 | 39293 ft | 599 kts | 93° |
| 2026-05-07 22:15 | 31.67580 | 118.69851 | 39282 ft | 599 kts | 94° |
| 2026-05-07 22:15 | 31.66857 | 118.79656 | 39282 ft | 599 kts | 94° |
| 2026-05-07 22:16 | 31.66133 | 118.89359 | 39293 ft | 599 kts | 94° |
| 2026-05-07 22:16 | 31.65400 | 118.99075 | 39290 ft | 598 kts | 94° |
| 2026-05-07 22:17 | 31.64728 | 119.08799 | 39290 ft | 598 kts | 92° |
| 2026-05-07 22:17 | 31.64260 | 119.18569 | 39295 ft | 599 kts | 91° |
| 2026-05-07 22:18 | 31.63628 | 119.33154 | 39280 ft | 598 kts | 91° |
| 2026-05-07 22:19 | 31.63190 | 119.42859 | 39292 ft | 597 kts | 91° |
| 2026-05-07 22:19 | 31.62732 | 119.52602 | 39287 ft | 598 kts | 91° |
| 2026-05-07 22:20 | 31.62267 | 119.62316 | 39284 ft | 598 kts | 91° |
| 2026-05-07 22:20 | 31.61801 | 119.72051 | 39264 ft | 598 kts | 91° |
| 2026-05-07 22:20 | 31.61581 | 119.76896 | 39259 ft | 585 kts | 92° |
| 2026-05-07 22:21 | 31.61369 | 119.81514 | 39185 ft | 570 kts | 91° |
| 2026-05-07 22:21 | 31.61157 | 119.86086 | 38870 ft | 561 kts | 91° |
| 2026-05-07 22:21 | 31.60943 | 119.90711 | 37837 ft | 568 kts | 91° |
| 2026-05-07 22:21 | 31.60726 | 119.95362 | 36466 ft | 581 kts | 92° |
| 2026-05-07 22:22 | 31.60504 | 120.00066 | 35083 ft | 588 kts | 92° |
| 2026-05-07 22:22 | 31.60277 | 120.04824 | 33905 ft | 589 kts | 92° |
| 2026-05-07 22:22 | 31.60045 | 120.09631 | 32992 ft | 583 kts | 92° |
| 2026-05-07 22:22 | 31.59819 | 120.14288 | 32490 ft | 573 kts | 93° |
| 2026-05-07 22:23 | 31.59590 | 120.18954 | 31954 ft | 565 kts | 92° |
| 2026-05-07 22:23 | 31.59366 | 120.23480 | 31308 ft | 561 kts | 93° |
| 2026-05-07 22:23 | 31.59125 | 120.28046 | 30685 ft | 556 kts | 95° |
| 2026-05-07 22:23 | 31.58554 | 120.32467 | 29722 ft | 558 kts | 103° |
| 2026-05-07 22:24 | 31.57506 | 120.36829 | 28314 ft | 568 kts | 110° |
| 2026-05-07 22:24 | 31.56203 | 120.41273 | 26752 ft | 580 kts | 111° |
| 2026-05-07 22:24 | 31.54880 | 120.45689 | 25661 ft | 580 kts | 110° |
| 2026-05-07 22:24 | 31.53546 | 120.50141 | 25113 ft | 568 kts | 111° |
| 2026-05-07 22:25 | 31.52253 | 120.54457 | 24784 ft | 554 kts | 111° |
| 2026-05-07 22:25 | 31.51002 | 120.58624 | 24248 ft | 545 kts | 111° |
| 2026-05-07 22:25 | 31.49740 | 120.62825 | 23481 ft | 542 kts | 111° |
| 2026-05-07 22:25 | 31.48507 | 120.66927 | 22778 ft | 537 kts | 112° |
| 2026-05-07 22:26 | 31.47281 | 120.71003 | 22299 ft | 527 kts | 111° |
| 2026-05-07 22:26 | 31.46075 | 120.75007 | 21744 ft | 519 kts | 112° |
| 2026-05-07 22:26 | 31.44880 | 120.78970 | 21148 ft | 512 kts | 111° |
| 2026-05-07 22:26 | 31.43700 | 120.82878 | 20531 ft | 507 kts | 111° |
| 2026-05-07 22:27 | 31.42547 | 120.86692 | 19948 ft | 500 kts | 111° |
| 2026-05-07 22:27 | 31.41397 | 120.90493 | 19344 ft | 494 kts | 111° |
| 2026-05-07 22:27 | 31.40257 | 120.94257 | 18682 ft | 490 kts | 111° |
| 2026-05-07 22:27 | 31.39118 | 120.98012 | 18042 ft | 485 kts | 111° |
| 2026-05-07 22:28 | 31.38003 | 121.01682 | 17484 ft | 478 kts | 111° |
| 2026-05-07 22:28 | 31.36905 | 121.05296 | 16900 ft | 472 kts | 111° |
| 2026-05-07 22:28 | 31.35662 | 121.08845 | 16277 ft | 464 kts | 118° |
| 2026-05-07 22:28 | 31.34020 | 121.12010 | 15661 ft | 457 kts | 128° |
| 2026-05-07 22:29 | 31.32007 | 121.14834 | 15050 ft | 450 kts | 134° |
| 2026-05-07 22:29 | 31.29909 | 121.17505 | 14429 ft | 445 kts | 134° |
| 2026-05-07 22:29 | 31.27793 | 121.20172 | 13756 ft | 441 kts | 133° |
| 2026-05-07 22:29 | 31.25712 | 121.22787 | 13149 ft | 436 kts | 133° |
| 2026-05-07 22:30 | 31.23667 | 121.25351 | 12576 ft | 431 kts | 133° |
| 2026-05-07 22:30 | 31.21647 | 121.27879 | 12020 ft | 424 kts | 133° |
| 2026-05-07 22:30 | 31.19640 | 121.30386 | 11440 ft | 419 kts | 133° |
| 2026-05-07 22:30 | 31.17653 | 121.32866 | 10851 ft | 414 kts | 133° |
| 2026-05-07 22:31 | 31.15700 | 121.35300 | 10334 ft | 407 kts | 133° |
| 2026-05-07 22:31 | 31.13789 | 121.37680 | 9866 ft | 399 kts | 133° |
| 2026-05-07 22:31 | 31.11894 | 121.40037 | 9305 ft | 395 kts | 133° |
| 2026-05-07 22:31 | 31.10020 | 121.42366 | 8706 ft | 392 kts | 133° |
| 2026-05-07 22:32 | 31.08172 | 121.44662 | 8105 ft | 388 kts | 132° |
| 2026-05-07 22:32 | 31.06340 | 121.46935 | 7540 ft | 384 kts | 131° |
| 2026-05-07 22:32 | 31.04514 | 121.49200 | 6979 ft | 379 kts | 131° |
| 2026-05-07 22:32 | 31.02734 | 121.51406 | 6410 ft | 376 kts | 131° |
| 2026-05-07 22:33 | 31.00935 | 121.53635 | 5846 ft | 372 kts | 130° |
| 2026-05-07 22:33 | 30.99176 | 121.55812 | 5517 ft | 369 kts | 130° |
| 2026-05-07 22:33 | 30.97422 | 121.57984 | 5230 ft | 367 kts | 130° |
| 2026-05-07 22:33 | 30.95653 | 121.60171 | 4934 ft | 365 kts | 130° |
| 2026-05-07 22:34 | 30.94061 | 121.62402 | 4638 ft | 358 kts | 119° |
| 2026-05-07 22:34 | 30.93015 | 121.64991 | 4326 ft | 349 kts | 103° |
| 2026-05-07 22:34 | 30.92506 | 121.67713 | 4025 ft | 335 kts | 95° |
| 2026-05-07 22:34 | 30.92193 | 121.70318 | 3741 ft | 324 kts | 93° |
| 2026-05-07 22:35 | 30.91959 | 121.72894 | 3499 ft | 312 kts | 91° |
| 2026-05-07 22:35 | 30.91781 | 121.75347 | 3284 ft | 301 kts | 90° |
| 2026-05-07 22:35 | 30.91627 | 121.77753 | 3071 ft | 291 kts | 89° |
| 2026-05-07 22:35 | 30.91486 | 121.80032 | 2988 ft | 277 kts | 89° |
| 2026-05-07 22:36 | 30.91562 | 121.82188 | 2964 ft | 255 kts | 71° |
| 2026-05-07 22:36 | 30.92370 | 121.83950 | 2690 ft | 243 kts | 44° |
| 2026-05-07 22:36 | 30.93719 | 121.85035 | 2456 ft | 236 kts | 27° |
| 2026-05-07 22:36 | 30.95211 | 121.85754 | 2434 ft | 222 kts | 14° |
| 2026-05-07 22:37 | 30.96698 | 121.85764 | 2460 ft | 210 kts | 353° |
| 2026-05-07 22:37 | 30.98073 | 121.85366 | 2462 ft | 198 kts | 348° |
| 2026-05-07 22:37 | 30.99356 | 121.84894 | 2457 ft | 185 kts | 347° |
| 2026-05-07 22:37 | 31.00535 | 121.84450 | 2460 ft | 170 kts | 347° |
| 2026-05-07 22:38 | 31.01629 | 121.84042 | 2463 ft | 160 kts | 348° |
| 2026-05-07 22:38 | 31.02689 | 121.83649 | 2398 ft | 161 kts | 348° |
| 2026-05-07 22:38 | 31.03756 | 121.83247 | 2163 ft | 157 kts | 347° |
| 2026-05-07 22:38 | 31.04759 | 121.82867 | 1908 ft | 147 kts | 347° |
| 2026-05-07 22:39 | 31.05717 | 121.82510 | 1592 ft | 146 kts | 347° |
| 2026-05-07 22:39 | 31.06681 | 121.82147 | 1308 ft | 141 kts | 347° |
| 2026-05-07 22:39 | 31.07617 | 121.81795 | 1117 ft | 141 kts | 347° |
| 2026-05-07 22:39 | 31.08552 | 121.81445 | 922 ft | 142 kts | 346° |
| 2026-05-07 22:40 | 31.09515 | 121.81081 | 724 ft | 144 kts | 346° |
| 2026-05-07 22:40 | 31.10469 | 121.80724 | 522 ft | 144 kts | 346° |
| 2026-05-07 22:40 | 31.11423 | 121.80365 | 340 ft | 143 kts | 345° |
| 2026-05-07 22:40 | 31.12379 | 121.80005 | 142 ft | 144 kts | 345° |
| 2026-05-07 22:41 | 31.13301 | 121.79655 | 40 ft | 135 kts | 345° |
| 2026-05-07 22:41 | 31.14122 | 121.79354 | 27 ft | 104 kts | 342° |
| 2026-05-07 22:41 | 31.14670 | 121.79145 | 27 ft | 59 kts | 341° |
| 2026-05-07 22:41 | 31.14928 | 121.79057 | 27 ft | 26 kts | 350° |
| 2026-05-07 22:42 | 31.15085 | 121.79065 | 27 ft | 18 kts | 10° |
| 2026-05-07 22:42 | 31.15178 | 121.79087 | 27 ft | 8 kts | 25° |
| 2026-05-07 22:42 | 31.15202 | 121.79113 | 27 ft | 1 kts | 50° |
| 2026-05-07 22:42 | 31.15204 | 121.79115 | 27 ft | 0 kts | 50° |
| 2026-05-07 22:43 | 31.15207 | 121.79121 | 27 ft | 3 kts | 57° |
| 2026-05-07 22:43 | 31.15226 | 121.79169 | 27 ft | 9 kts | 72° |
| 2026-05-07 22:43 | 31.15252 | 121.79264 | 27 ft | 14 kts | 72° |
| 2026-05-07 22:43 | 31.15284 | 121.79376 | 27 ft | 14 kts | 71° |
| 2026-05-07 22:44 | 31.15321 | 121.79440 | 27 ft | 7 kts | 26° |
| 2026-05-07 22:44 | 31.15372 | 121.79445 | 27 ft | 7 kts | 349° |
| 2026-05-07 22:44 | 31.15422 | 121.79421 | 27 ft | 7 kts | 337° |
| 2026-05-07 22:44 | 31.15472 | 121.79401 | 27 ft | 5 kts | 342° |
| 2026-05-07 22:45 | 31.15495 | 121.79404 | 27 ft | 2 kts | 46° |
| 2026-05-07 22:45 | 31.15500 | 121.79417 | 27 ft | 2 kts | 70° |
| 2026-05-07 22:45 | 31.15509 | 121.79446 | 27 ft | 6 kts | 71° |
| 2026-05-07 22:45 | 31.15519 | 121.79482 | 27 ft | 3 kts | 72° |
| 2026-05-07 22:46 | 31.15525 | 121.79502 | 27 ft | 0 kts | 72° |
| 2026-05-07 22:46 | 31.15525 | 121.79503 | 27 ft | 0 kts | 72° |